Latest Weather Observations for Tennant Creek

IDD60801

Issued at 12:41 pm CST Tuesday 30 November 2021 (issued every 10 minutes, with the page automatically refreshed every 10 minutes)

About weather observations | Map of weather stations | Latest weather observations for NT | Other Formats
Station Details ID: 015135 Name: TENNANT CREEK AIRPORT Lat: -19.64 Lon: 134.18 Height: 375.7 m
Data from the previous 72 hours. | See also: Recent months at Tennant Creek
Date/Time
CST
Temp
°C
App
Temp
°C
Dew
Point
°C
Rel
Hum
%
Delta-T
°C
Wind Press
QNH
hPa
Press
MSL
hPa
Rain since
9am
mm
Dir  Spd
km/h
Gust
km/h
Spd
kts
Gust
kts
30/12:30pm 36.4 31.6 -0.1 10 18.5 SE 15 26 8 14 1010.3 1007.4 0.0
30/12:00pm 36.0 31.5 2.1 12 17.7 ESE 15 24 8 13 1010.8 1007.9 0.0
30/11:30am 35.2 30.8 2.6 13 17.1 SE 15 26 8 14 1011.2 1008.3 0.0
30/11:00am 34.7 29.5 3.3 14 16.6 E 20 32 11 17 1011.7 1008.9 0.0
30/10:30am 33.9 28.7 3.7 15 16.0 E 20 30 11 16 1012.1 1009.2 0.0
30/10:00am 33.0 26.7 3.9 16 15.4 E 26 35 14 19 1012.4 1009.5 0.0
30/09:30am 33.0 26.3 3.9 16 15.4 E 28 35 15 19 1012.6 1009.7 0.0
30/09:00am 31.3 25.5 4.2 18 14.3 SE 24 32 13 17 1012.9 1010.0 0.0
30/08:30am 30.4 23.4 4.2 19 13.7 ESE 30 39 16 21 1012.7 1009.8 0.0
30/08:00am 29.5 22.5 4.2 20 13.2 ESE 30 37 16 20 1012.7 1009.8 0.0
30/07:30am 28.4 21.4 4.0 21 12.6 ESE 30 39 16 21 1012.5 1009.6 0.0
30/07:00am 27.1 20.5 4.2 23 11.8 ESE 28 35 15 19 1012.4 1009.5 0.0
30/06:30am 25.9 20.0 3.8 24 11.2 ESE 24 32 13 17 1012.1 1009.2 0.0
30/06:00am 24.6 19.4 3.8 26 10.4 ESE 20 28 11 15 1011.5 1008.7 0.0
30/05:30am 24.5 19.9 3.8 26 10.4 SE 17 24 9 13 1011.1 1008.2 0.0
30/05:00am 24.8 21.0 4.0 26 10.5 SE 13 19 7 10 1010.8 1007.9 0.0
30/04:30am 24.9 21.1 4.1 26 10.5 SE 13 17 7 9 1010.6 1007.7 0.0
30/04:00am 22.0 20.9 5.0 33 8.6 CALM 0 0 0 0 1010.3 1007.4 0.0
30/03:30am 21.9 19.0 4.9 33 8.6 SSW 9 11 5 6 1010.2 1007.3 0.0
30/03:00am 24.5 22.2 4.8 28 10.1 S 6 9 3 5 1010.3 1007.4 0.0
30/02:30am 22.6 21.6 5.5 33 8.7 CALM 0 0 0 0 1010.3 1007.4 0.0
30/02:00am 23.6 21.0 4.0 28 9.8 NE 7 7 4 4 1010.5 1007.6 0.0
30/01:30am 24.4 22.4 4.2 27 10.2 SE 4 7 2 4 1010.6 1007.7 0.0
30/01:00am 26.9 23.9 4.0 23 11.7 SE 9 13 5 7 1010.8 1007.9 0.0
30/12:30am 27.5 23.2 3.2 21 12.3 S 15 22 8 12 1010.9 1008.0 0.0
30/12:00am 28.0 24.2 3.7 21 12.4 S 13 19 7 10 1011.1 1008.2 0.0
 
Date/Time
CST
Temp
°C
App
Temp
°C
Dew
Point
°C
Rel
Hum
%
Delta-T
°C
Wind Press
QNH
hPa
Press
MSL
hPa
Rain since
9am
mm
Dir  Spd
km/h
Gust
km/h
Spd
kts
Gust
kts
29/11:30pm 27.7 23.8 3.4 21 12.4 SSE 13 17 7 9 1011.4 1008.6 0.0
29/11:00pm 28.7 24.7 2.8 19 13.1 S 13 15 7 8 1011.4 1008.6 0.0
29/10:30pm 29.5 25.3 1.9 17 13.8 SSE 13 17 7 9 1011.2 1008.3 0.0
29/10:00pm 29.8 25.5 1.3 16 14.1 SSE 13 17 7 9 1011.1 1008.2 0.0
29/09:30pm 30.4 25.7 0.9 15 14.6 SSE 15 22 8 12 1010.8 1007.9 0.0
29/09:00pm 30.6 25.9 1.0 15 14.7 SSE 15 20 8 11 1010.6 1007.7 0.0
29/08:30pm 31.1 26.3 0.5 14 15.1 SSE 15 19 8 10 1010.4 1007.5 0.0
29/08:00pm 32.1 27.8 1.3 14 15.5 S 13 17 7 9 1010.2 1007.3 0.0
29/07:30pm 32.6 28.6 0.6 13 16.0 S 11 13 6 7 1009.7 1006.8 0.0
29/07:00pm 33.4 28.8 -1.0 11 16.8 SSW 13 17 7 9 1009.3 1006.4 0.0
29/06:30pm 34.9 30.3 -1.2 10 17.8 SSE 13 17 7 9 1008.9 1006.1 0.0
29/06:00pm 35.5 31.5 -2.2 9 18.4 S 9 17 5 9 1008.6 1005.7 0.0
29/05:30pm 35.8 30.7 -2.0 9 18.5 SSE 15 22 8 12 1008.4 1005.5 0.0
29/05:00pm 36.0 31.3 -1.8 9 18.6 SE 13 20 7 11 1008.2 1005.3 0.0
29/04:30pm 36.4 32.5 -1.5 9 18.8 WNW 9 17 5 9 1008.3 1005.4 0.0
29/04:00pm 36.3 31.6 -1.6 9 18.7 SE 13 17 7 9 1008.3 1005.4 0.0
29/03:30pm 36.3 31.6 -1.6 9 18.7 SSE 13 19 7 10 1008.6 1005.7 0.0
29/03:00pm 35.7 30.4 -0.6 10 18.2 ENE 17 26 9 14 1009.0 1006.2 0.0
29/02:30pm 35.8 32.0 -0.5 10 18.2 SE 9 28 5 15 1009.4 1006.5 0.0
29/02:00pm 35.9 31.4 -0.5 10 18.2 SSE 13 24 7 13 1009.8 1006.9 0.0
29/01:30pm 35.5 30.2 -0.8 10 18.1 SSE 17 28 9 15 1010.3 1007.4 0.0
29/01:00pm 35.0 29.8 0.2 11 17.5 SSE 17 26 9 14 1010.8 1007.9 0.0
29/12:30pm 35.0 31.7 0.2 11 17.5 E 7 11 4 6 1011.4 1008.6 0.0
29/12:00pm 34.5 30.0 2.1 13 16.8 S 15 28 8 15 1011.8 1009.0 0.0
29/11:30am 34.1 30.5 2.8 14 16.4 E 11 15 6 8 1012.4 1009.5 0.0
29/11:00am 32.9 28.3 3.8 16 15.3 E 17 28 9 15 1013.0 1010.1 0.0
29/10:30am 32.1 27.1 4.8 18 14.6 E 20 32 11 17 1013.3 1010.4 0.0
29/10:00am 30.8 24.8 5.3 20 13.6 E 26 35 14 19 1013.7 1010.9 0.0
29/09:30am 30.4 24.2 6.3 22 13.1 E 28 33 15 18 1013.9 1011.1 0.0
29/09:00am 28.8 22.2 6.2 24 12.1 ESE 30 35 16 19 1013.9 1011.1 0.0
29/08:30am 28.0 21.0 6.2 25 11.6 E 32 41 17 22 1013.7 1010.9 0.0
29/08:00am 26.6 19.3 5.5 26 11.0 ESE 33 46 18 25 1013.5 1010.6 0.0
29/07:30am 25.7 18.9 5.3 27 10.6 ESE 30 41 16 22 1013.4 1010.5 0.0
29/07:00am 24.6 18.0 4.4 27 10.2 ESE 28 35 15 19 1013.0 1010.1 0.0
29/06:30am 23.7 17.7 3.6 27 10.0 ESE 24 32 13 17 1012.7 1009.8 0.0
29/06:00am 23.4 17.7 2.8 26 10.1 ESE 22 28 12 15 1012.5 1009.6 0.0
29/05:30am 23.9 17.8 2.7 25 10.4 ESE 24 30 13 16 1011.9 1009.1 0.0
29/05:00am 23.8 18.3 2.0 24 10.5 ESE 20 28 11 15 1011.5 1008.7 0.0
29/04:30am 23.7 18.9 2.5 25 10.3 ESE 17 22 9 12 1011.3 1008.5 0.0
29/04:00am 23.9 19.1 2.7 25 10.4 ESE 17 20 9 11 1011.2 1008.3 0.0
29/03:30am 24.1 19.7 2.9 25 10.4 ESE 15 19 8 10 1011.1 1008.2 0.0
29/03:00am 24.4 20.1 3.1 25 10.5 ESE 15 17 8 9 1011.1 1008.2 0.0
29/02:30am 25.0 20.7 3.0 24 10.9 ESE 15 17 8 9 1011.1 1008.2 0.0
29/02:00am 25.4 20.7 3.4 24 11.0 ESE 17 20 9 11 1011.2 1008.3 0.0
29/01:30am 25.4 21.6 4.0 25 10.8 ESE 13 17 7 9 1011.5 1008.7 0.0
29/01:00am 25.3 22.0 4.4 26 10.6 ESE 11 13 6 7 1011.7 1008.9 0.0
29/12:30am 24.9 22.0 4.6 27 10.4 ESE 9 11 5 6 1011.8 1009.0 0.0
29/12:00am 25.6 21.8 4.1 25 10.9 ESE 13 15 7 8 1012.2 1009.3 0.0
 
Date/Time
CST
Temp
°C
App
Temp
°C
Dew
Point
°C
Rel
Hum
%
Delta-T
°C
Wind Press
QNH
hPa
Press
MSL
hPa
Rain since
9am
mm
Dir  Spd
km/h
Gust
km/h
Spd
kts
Gust
kts
28/11:30pm 27.3 23.3 3.1 21 12.2 SSE 13 17 7 9 1012.3 1009.4 0.0
28/11:00pm 27.4 23.6 3.8 22 12.0 SSE 13 17 7 9 1012.3 1009.4 0.0
28/10:30pm 27.7 23.4 3.4 21 12.3 SSE 15 19 8 10 1012.4 1009.5 0.0
28/10:00pm 28.0 24.2 3.7 21 12.4 S 13 15 7 8 1012.1 1009.2 0.0
28/09:30pm 28.5 25.0 3.4 20 12.8 S 11 17 6 9 1011.9 1009.1 0.0
28/09:00pm 29.1 25.5 3.1 19 13.3 S 11 13 6 7 1011.7 1008.9 0.0
28/08:30pm 29.6 26.4 2.8 18 13.6 S 9 11 5 6 1011.5 1008.7 0.0
28/08:00pm 30.2 26.5 2.5 17 14.1 S 11 15 6 8 1011.2 1008.3 0.0
28/07:30pm 30.9 27.3 3.0 17 14.4 S 11 13 6 7 1010.9 1008.0 0.0
28/07:00pm 31.8 27.7 2.0 15 15.2 SSE 13 17 7 9 1010.6 1007.7 0.0
28/06:30pm 32.9 29.1 1.9 14 15.9 SSE 11 19 6 10 1010.4 1007.5 0.0
28/06:00pm 33.6 28.8 0.3 12 16.7 S 15 20 8 11 1010.3 1007.4 0.0
28/05:30pm 34.3 31.1 0.8 12 17.0 SE 7 15 4 8 1010.1 1007.2 0.0
28/05:00pm 34.2 29.7 1.9 13 16.6 E 15 20 8 11 1010.0 1007.1 0.0
28/04:30pm 34.1 30.3 1.8 13 16.6 E 11 17 6 9 1010.1 1007.2 0.0
28/04:00pm 34.4 30.5 0.9 12 17.0 ESE 11 15 6 8 1010.1 1007.2 0.0
28/03:30pm 34.6 29.6 1.1 12 17.1 SSE 17 32 9 17 1010.4 1007.5 0.0
28/03:00pm 34.8 30.5 1.2 12 17.2 SE 13 26 7 14 1010.7 1007.8 0.0
28/02:30pm 33.6 29.1 2.4 14 16.2 S 15 26 8 14 1011.1 1008.2 0.0
28/02:00pm 33.2 29.1 2.1 14 16.0 E 13 26 7 14 1011.6 1008.8 0.0
28/01:30pm 33.2 27.9 3.1 15 15.7 S 20 32 11 17 1012.3 1009.4 0.0
28/01:00pm 33.7 30.2 5.3 17 15.4 SW 13 26 7 14 1012.7 1009.8 0.0
28/12:30pm 33.0 29.7 4.7 17 15.2 ENE 11 22 6 12 1013.0 1010.1 0.0
28/12:00pm 31.8 28.5 4.6 18 14.4 ESE 11 20 6 11 1013.7 1010.9 0.0
28/11:30am 31.3 26.5 4.9 19 14.0 SE 19 28 10 15 1014.2 1011.4 0.0
28/11:00am 31.1 25.9 5.5 20 13.7 ESE 22 33 12 18 1014.4 1011.6 0.0
28/10:30am 30.3 24.7 5.6 21 13.2 ESE 24 33 13 18 1014.7 1011.9 0.0
28/10:00am 29.9 24.0 5.9 22 12.9 ESE 26 35 14 19 1015.1 1012.2 0.0
28/09:30am 28.9 22.6 5.7 23 12.3 ESE 28 37 15 20 1015.3 1012.4 0.0
28/09:00am 27.6 20.2 5.2 24 11.7 E 33 41 18 22 1015.3 1012.4 0.0
28/08:30am 27.0 20.4 5.9 26 11.1 ESE 30 39 16 21 1015.3 1012.4 0.0
28/08:00am 25.9 18.2 5.5 27 10.6 ESE 35 46 19 25 1015.1 1012.2 0.0
28/07:30am 24.6 17.3 5.4 29 9.9 ESE 33 43 18 23 1014.9 1012.0 0.0
28/07:00am 23.7 16.5 5.1 30 9.5 ESE 32 39 17 21 1014.5 1011.7 0.0
28/06:30am 23.0 16.2 5.0 31 9.1 ESE 30 37 16 20 1014.1 1011.3 0.0
28/06:00am 22.6 15.7 4.6 31 9.0 ESE 30 46 16 25 1013.7 1010.9 0.0
28/05:30am 22.7 15.4 4.7 31 9.1 ESE 32 39 17 21 1013.6 1010.7 0.0
28/05:00am 23.0 16.1 4.5 30 9.3 ESE 30 39 16 21 1013.0 1010.1 0.0
28/04:30am 23.2 17.4 4.2 29 9.5 ESE 24 35 13 19 1012.8 1009.9 0.0
28/04:00am 23.5 17.6 4.0 28 9.7 ESE 24 33 13 18 1012.6 1009.7 0.0
28/03:30am 24.0 17.3 3.9 27 10.1 ESE 28 39 15 21 1012.4 1009.5 0.0
28/03:00am 24.4 17.7 3.7 26 10.4 ESE 28 35 15 19 1012.3 1009.4 0.0
28/02:30am 25.0 18.3 3.6 25 10.7 ESE 28 41 15 22 1012.2 1009.3 0.0
28/02:00am 25.3 18.9 3.3 24 11.0 ESE 26 35 14 19 1012.2 1009.3 0.0
28/01:30am 24.8 19.6 3.5 25 10.6 ESE 20 28 11 15 1012.3 1009.4 0.0
28/01:00am 24.8 20.3 4.0 26 10.5 ESE 17 22 9 12 1012.6 1009.7 0.0
28/12:30am 25.2 20.7 4.3 26 10.6 SE 17 20 9 11 1012.8 1009.9 0.0
28/12:00am 25.4 21.3 4.5 26 10.7 ESE 15 19 8 10 1012.9 1010.0 0.0
 
Date/Time
CST
Temp
°C
App
Temp
°C
Dew
Point
°C
Rel
Hum
%
Delta-T
°C
Wind Press
QNH
hPa
Press
MSL
hPa
Rain since
9am
mm
Dir  Spd
km/h
Gust
km/h
Spd
kts
Gust
kts
27/11:30pm 26.0 21.2 4.5 25 11.0 ESE 19 24 10 13 1013.1 1010.2 0.0
27/11:00pm 26.4 22.8 4.8 25 11.2 SE 13 15 7 8 1013.1 1010.2 0.0
27/10:30pm 26.9 23.0 5.2 25 11.3 SE 15 17 8 9 1013.0 1010.1 0.0
27/10:00pm 27.7 23.5 5.9 25 11.6 SSE 17 22 9 12 1012.8 1009.9 0.0
27/09:30pm 28.1 24.1 6.8 26 11.5 SSE 17 22 9 12 1012.6 1009.7 0.0
27/09:00pm 28.7 25.2 7.3 26 11.7 S 15 19 8 10 1012.4 1009.5 0.0
27/08:30pm 29.0 26.0 7.6 26 11.8 SSE 13 19 7 10 1012.4 1009.5 0.0
27/08:00pm 29.6 26.7 8.1 26 12.0 SSE 13 17 7 9 1012.1 1009.2 0.0
27/07:30pm 30.1 27.5 7.9 25 12.3 SSE 11 13 6 7 1011.6 1008.8 0.0
27/07:00pm 31.0 28.1 8.1 24 12.8 SSE 13 19 7 10 1011.2 1008.3 0.0
27/06:30pm 31.8 28.4 7.5 22 13.5 S 15 22 8 12 1010.9 1008.0 0.0
27/06:00pm 32.3 28.6 7.9 22 13.7 SSE 17 26 9 14 1010.7 1007.8 0.0
27/05:30pm 32.7 29.1 8.2 22 13.9 S 17 28 9 15 1010.5 1007.6 0.0
27/05:00pm 32.9 28.9 8.4 22 13.9 SSE 19 30 10 16 1010.3 1007.4 0.0
27/04:30pm 33.2 29.8 9.3 23 13.8 SSE 17 26 9 14 1010.3 1007.4 0.0
27/04:00pm 33.0 29.2 9.1 23 13.7 SSE 19 35 10 19 1010.2 1007.3 0.0
27/03:30pm 33.0 29.0 9.1 23 13.7 S 20 30 11 16 1010.3 1007.4 0.0
27/03:00pm 33.1 29.3 9.2 23 13.8 S 19 26 10 14 1010.8 1007.9 0.0
27/02:30pm 33.2 29.5 9.3 23 13.8 SSE 19 30 10 16 1011.2 1008.3 0.0
27/02:00pm 32.5 30.2 10.5 26 12.9 SE 13 24 7 13 1011.5 1008.7 0.0
27/01:30pm 32.6 29.2 10.6 26 12.9 S 19 28 10 15 1012.1 1009.2 0.0
27/01:00pm 31.8 29.1 10.5 27 12.4 SSE 15 28 8 15 1012.6 1009.7 0.0

Other formats

Comma delimited format used in spreadsheet applications
http://www.bom.gov.au/fwo/IDD60801/IDD60801.94238.axf

JavaScript Object Notation format (JSON) in row-major order
http://www.bom.gov.au/fwo/IDD60801/IDD60801.94238.json

Data quality

Most of these data are generated automatically and are frequently updated. Quality checks on data are not normally performed. It is possible for incorrect values to appear. Refer to information at About Latest Weather Observations and please check the disclaimer before using these data.